Port Hope, MI (48468)

16:30 EDT le 24 octobre 2014 (GMT -0400)
Eastwatch-by-the-Sea | Change Station
CLOSE
Current Station
Stations météorologiques personnelles
Location: Port Hope, MI
Altitude: 565 ft
Stations météo à proximité

Alt. 565 ft 43.95 °N, 82.72 °W | Updated 1 second ago

Partiellement nuageux
Partiellement nuageux
60.1 ° F
Paraît 60.1 ° F
N
2.2
Vent Variable Vent de Sud
Gusts 6.0 mph

Aujourd'hui
Haut(e) -- | Bas -- ° F
--% Risque de précip.
Hier
Haut(e) -- | Bas -- ° F
Precip. -- pouce
7:57 AM 6:32 PM
Nouvelle lune, 1% visible
Pression 29.96 pouce
Visibilité 10.0 Miles terrestres
Nuages Nuageux 3400 ft
Point de rosée 50 ° F
Humidité 68%
Précipitations 0.00 pouce
Profondeur de la couche neigeuse Non disponible.
UV 1 sur 12
Pollen .90 sur 12
PM2.5 Moyen
Flu Activity Sporadic
METAR KBAX 242019Z AUTO 22004KT 10SM BKN034 16/09 A2996 RMK AO2 T01550086

More Conditions Fewer Conditions

Pression 29.96 pouce
Visibilité 10.0 Miles terrestres
Nuages Nuageux 3400 ft
Point de rosée 50 ° F
Humidité 68%
Précipitations 0.00 pouce
Profondeur de la couche neigeuse Non disponible.
UV 1 sur 12
Pollen .90 sur 12
PM2.5 Moyen
Flu Activity Sporadic
METAR KBAX 242019Z AUTO 22004KT 10SM BKN034 16/09 A2996 RMK AO2 T01550086

More Conditions Fewer Conditions

10-Day Weather Forecast

Almanac

Astronomie

Oct. 24, 2014 Lever Coucher
Temps réel 07:57 EDT 18:32 EDT
Crépuscule civil 07:27 EDT 19:02 EDT
Crépuscule nautique 06:53 EDT 19:36 EDT
Crépuscule astronomique 06:20 EDT 20:09 EDT
Lune 08:35 EDT 19:10 EDT
Durée de lumière visible 11h 34m
Longueur du jour
10h 35m
Tomorrow will be 2m 50s shorter.
Nouvelle lune, 1% of the Moon is Illuminated
Aujourd'hui
Nouvelle lune
Oct 30
Premier quartier
Nov 6
Pleine lune
Nov 14
Dernier quartier
Nov 22
Nouveau

Extrêmes aujourd'hui

State Highs State Lows

Community

WunderPhotos

Upload Photos

1,764,648 Photos téléchargées !

Nearby

Qualité de l'air

  Qualité de l'air Indice de la qualité de l'air Polluant
Hier Bon
PM2.5
Actuel Moyen
PM2.5
vendredi Bon
PM2.5
samedi Bon
PM2.5
dimanche Bon
PM2.5
lundi Bon
PM2.5

Épaisseur de neige

Station Depth Altitude
Pas de nouvelles chutes de neige

Activité sismique

Ville Distance Mag. Time & Date
No recent earthquake activity has been reported nearby.
Minimum magnitude displayed is 2.5.

Températures des eaux côtières

Lieu Température
Harbor Beach, MI 48.9 ° F

Stations météo à proximité